RYR7091 LATI-LICA
Flight info
| Callsign | RYR7091 |
|---|---|
| Flight time | 0h 48m |
| Altitude | 34000 |
| Route | DIRES DCT PAPIZ DCT DAMIC DCT GEMVI DCT CRN L869 CDC |
| Aircraft | B738/M-SDE2E3FGHIRWXY/LB1 |
Departure
| Time | 2026-05-06 23:32 |
|---|---|
| Airport | Tirana International Airport Mother Teresa (LATI) |
Arrival
| Time | 2026-05-07 00:21 |
|---|---|
| Airport | Lamezia Terme Sant'Eufemia International Airport (LICA) |
| Time | Latitude | Longitude | Altitude | Speed | Heading |
|---|---|---|---|---|---|
| 2026-05-06 23:20 | 41.41912 | 19.71539 | 117 ft | 0 kts | 264° |
| 2026-05-06 23:26 | 41.41913 | 19.71555 | 117 ft | 2 kts | 271° |
| 2026-05-06 23:27 | 41.41908 | 19.71579 | 117 ft | 3 kts | 304° |
| 2026-05-06 23:27 | 41.41893 | 19.71596 | 117 ft | 3 kts | 337° |
| 2026-05-06 23:27 | 41.41881 | 19.71600 | 117 ft | 0 kts | 353° |
| 2026-05-06 23:28 | 41.41882 | 19.71600 | 117 ft | 0 kts | 353° |
| 2026-05-06 23:28 | 41.41894 | 19.71598 | 117 ft | 3 kts | 353° |
| 2026-05-06 23:28 | 41.41930 | 19.71593 | 117 ft | 7 kts | 353° |
| 2026-05-06 23:29 | 41.41988 | 19.71584 | 117 ft | 10 kts | 354° |
| 2026-05-06 23:29 | 41.42068 | 19.71574 | 117 ft | 13 kts | 354° |
| 2026-05-06 23:29 | 41.42169 | 19.71560 | 117 ft | 16 kts | 354° |
| 2026-05-06 23:29 | 41.42259 | 19.71590 | 117 ft | 11 kts | 76° |
| 2026-05-06 23:30 | 41.42267 | 19.71662 | 117 ft | 6 kts | 83° |
| 2026-05-06 23:30 | 41.42274 | 19.71735 | 117 ft | 10 kts | 83° |
| 2026-05-06 23:30 | 41.42283 | 19.71831 | 117 ft | 11 kts | 83° |
| 2026-05-06 23:30 | 41.42289 | 19.71932 | 117 ft | 11 kts | 104° |
| 2026-05-06 23:31 | 41.42255 | 19.71962 | 117 ft | 3 kts | 174° |
| 2026-05-06 23:31 | 41.42250 | 19.71963 | 117 ft | 0 kts | 174° |
| 2026-05-06 23:31 | 41.42244 | 19.71964 | 117 ft | 8 kts | 174° |
| 2026-05-06 23:31 | 41.41947 | 19.72003 | 117 ft | 78 kts | 174° |
| 2026-05-06 23:32 | 41.41179 | 19.72105 | 117 ft | 140 kts | 174° |
| 2026-05-06 23:32 | 41.40091 | 19.72249 | 483 ft | 161 kts | 174° |
| 2026-05-06 23:32 | 41.38950 | 19.72386 | 1182 ft | 168 kts | 175° |
| 2026-05-06 23:32 | 41.37777 | 19.72502 | 1866 ft | 174 kts | 176° |
| 2026-05-06 23:33 | 41.36542 | 19.72597 | 2548 ft | 180 kts | 178° |
| 2026-05-06 23:33 | 41.35253 | 19.72667 | 3228 ft | 190 kts | 179° |
| 2026-05-06 23:33 | 41.33901 | 19.72673 | 3923 ft | 199 kts | 186° |
| 2026-05-06 23:33 | 41.32615 | 19.71966 | 4606 ft | 204 kts | 218° |
| 2026-05-06 23:34 | 41.31647 | 19.70571 | 5330 ft | 211 kts | 232° |
| 2026-05-06 23:34 | 41.30762 | 19.68931 | 6035 ft | 224 kts | 234° |
| 2026-05-06 23:34 | 41.29880 | 19.67180 | 6725 ft | 236 kts | 236° |
| 2026-05-06 23:34 | 41.28943 | 19.65287 | 7520 ft | 249 kts | 235° |
| 2026-05-06 23:35 | 41.27962 | 19.63325 | 8386 ft | 261 kts | 235° |
| 2026-05-06 23:35 | 41.26904 | 19.61299 | 9253 ft | 271 kts | 233° |
| 2026-05-06 23:35 | 41.25785 | 19.59259 | 10098 ft | 281 kts | 233° |
| 2026-05-06 23:35 | 41.24590 | 19.57112 | 10856 ft | 294 kts | 233° |
| 2026-05-06 23:36 | 41.23340 | 19.54884 | 11621 ft | 305 kts | 233° |
| 2026-05-06 23:36 | 41.22049 | 19.52587 | 12376 ft | 315 kts | 234° |
| 2026-05-06 23:36 | 41.20742 | 19.50249 | 13127 ft | 323 kts | 234° |
| 2026-05-06 23:36 | 41.19376 | 19.47811 | 13887 ft | 330 kts | 234° |
| 2026-05-06 23:37 | 41.18000 | 19.45358 | 14637 ft | 337 kts | 234° |
| 2026-05-06 23:37 | 41.16578 | 19.42834 | 15395 ft | 342 kts | 234° |
| 2026-05-06 23:37 | 41.15152 | 19.40308 | 16144 ft | 346 kts | 234° |
| 2026-05-06 23:37 | 41.13693 | 19.37732 | 16901 ft | 349 kts | 234° |
| 2026-05-06 23:38 | 41.12236 | 19.35167 | 17650 ft | 350 kts | 234° |
| 2026-05-06 23:38 | 41.10764 | 19.32587 | 18356 ft | 359 kts | 234° |
| 2026-05-06 23:38 | 41.09225 | 19.29895 | 19043 ft | 372 kts | 234° |
| 2026-05-06 23:38 | 41.07609 | 19.27076 | 19732 ft | 394 kts | 234° |
| 2026-05-06 23:39 | 41.05897 | 19.24093 | 20420 ft | 416 kts | 234° |
| 2026-05-06 23:39 | 41.04128 | 19.21014 | 21096 ft | 433 kts | 234° |
| 2026-05-06 23:39 | 41.02257 | 19.17762 | 21783 ft | 445 kts | 234° |
| 2026-05-06 23:39 | 41.00380 | 19.14509 | 22456 ft | 451 kts | 234° |
| 2026-05-06 23:40 | 40.98465 | 19.11197 | 23133 ft | 454 kts | 234° |
| 2026-05-06 23:40 | 40.96531 | 19.07863 | 23813 ft | 455 kts | 234° |
| 2026-05-06 23:40 | 40.94593 | 19.04534 | 24493 ft | 454 kts | 234° |
| 2026-05-06 23:40 | 40.92686 | 19.01259 | 25163 ft | 453 kts | 234° |
| 2026-05-06 23:41 | 40.90734 | 18.97979 | 25841 ft | 451 kts | 234° |
| 2026-05-06 23:41 | 40.88787 | 18.94766 | 26513 ft | 449 kts | 233° |
| 2026-05-06 23:41 | 40.86812 | 18.91546 | 27193 ft | 447 kts | 233° |
| 2026-05-06 23:41 | 40.84843 | 18.88369 | 27870 ft | 445 kts | 233° |
| 2026-05-06 23:42 | 40.82901 | 18.85262 | 28537 ft | 443 kts | 233° |
| 2026-05-06 23:42 | 40.80923 | 18.82124 | 29216 ft | 441 kts | 233° |
| 2026-05-06 23:42 | 40.78975 | 18.79052 | 29886 ft | 438 kts | 233° |
| 2026-05-06 23:42 | 40.77018 | 18.75952 | 30565 ft | 436 kts | 234° |
| 2026-05-06 23:43 | 40.75102 | 18.72902 | 31234 ft | 433 kts | 234° |
| 2026-05-06 23:43 | 40.73174 | 18.69834 | 31912 ft | 431 kts | 234° |
| 2026-05-06 23:43 | 40.71259 | 18.66793 | 32588 ft | 429 kts | 234° |
| 2026-05-06 23:43 | 40.69348 | 18.63773 | 33263 ft | 427 kts | 234° |
| 2026-05-06 23:44 | 40.67467 | 18.60817 | 33912 ft | 426 kts | 234° |
| 2026-05-06 23:44 | 40.65533 | 18.57787 | 34078 ft | 435 kts | 234° |
| 2026-05-06 23:44 | 40.63557 | 18.54694 | 34095 ft | 443 kts | 234° |
| 2026-05-06 23:45 | 40.59614 | 18.48542 | 34084 ft | 438 kts | 234° |
| 2026-05-06 23:45 | 40.55689 | 18.42461 | 34082 ft | 432 kts | 234° |
| 2026-05-06 23:46 | 40.51821 | 18.36495 | 34082 ft | 429 kts | 234° |
| 2026-05-06 23:46 | 40.47486 | 18.31065 | 34093 ft | 439 kts | 217° |
| 2026-05-06 23:47 | 40.41903 | 18.27708 | 34097 ft | 447 kts | 205° |
| 2026-05-06 23:47 | 40.35975 | 18.25158 | 34086 ft | 449 kts | 202° |
| 2026-05-06 23:48 | 40.29976 | 18.22849 | 34082 ft | 450 kts | 201° |
| 2026-05-06 23:48 | 40.23944 | 18.20604 | 34081 ft | 450 kts | 201° |
| 2026-05-06 23:49 | 40.17923 | 18.18386 | 34081 ft | 450 kts | 201° |
| 2026-05-06 23:49 | 40.11902 | 18.16176 | 34081 ft | 450 kts | 201° |
| 2026-05-06 23:50 | 40.05864 | 18.13964 | 34081 ft | 451 kts | 201° |
| 2026-05-06 23:50 | 39.96768 | 18.10743 | 34081 ft | 451 kts | 200° |
| 2026-05-06 23:51 | 39.90715 | 18.08607 | 34080 ft | 451 kts | 200° |
| 2026-05-06 23:51 | 39.84660 | 18.06471 | 34079 ft | 451 kts | 200° |
| 2026-05-06 23:52 | 39.78622 | 18.04327 | 34079 ft | 451 kts | 200° |
| 2026-05-06 23:52 | 39.72572 | 18.02201 | 34078 ft | 451 kts | 200° |
| 2026-05-06 23:53 | 39.66515 | 18.00093 | 34076 ft | 452 kts | 200° |
| 2026-05-06 23:53 | 39.60416 | 17.98000 | 34075 ft | 451 kts | 200° |
| 2026-05-06 23:54 | 39.54373 | 17.95934 | 34074 ft | 451 kts | 200° |
| 2026-05-06 23:54 | 39.48319 | 17.93853 | 34069 ft | 451 kts | 200° |
| 2026-05-06 23:55 | 39.42263 | 17.91720 | 34066 ft | 451 kts | 200° |
| 2026-05-06 23:55 | 39.36335 | 17.89430 | 34033 ft | 430 kts | 210° |
| 2026-05-06 23:56 | 39.33895 | 17.87357 | 34015 ft | 411 kts | 226° |
| 2026-05-06 23:56 | 39.32025 | 17.84671 | 34012 ft | 399 kts | 237° |
| 2026-05-06 23:56 | 39.30488 | 17.81737 | 33839 ft | 397 kts | 242° |
| 2026-05-06 23:56 | 39.29093 | 17.78623 | 33401 ft | 398 kts | 245° |
| 2026-05-06 23:57 | 39.27805 | 17.75468 | 32923 ft | 395 kts | 246° |
| 2026-05-06 23:57 | 39.26613 | 17.72318 | 32432 ft | 391 kts | 248° |
| 2026-05-06 23:57 | 39.25557 | 17.69132 | 31939 ft | 386 kts | 250° |
| 2026-05-06 23:57 | 39.24583 | 17.65926 | 31440 ft | 381 kts | 251° |
| 2026-05-06 23:58 | 39.23657 | 17.62726 | 30937 ft | 378 kts | 252° |
| 2026-05-06 23:58 | 39.22761 | 17.59544 | 30434 ft | 375 kts | 252° |
| 2026-05-06 23:58 | 39.21869 | 17.56390 | 29932 ft | 372 kts | 252° |
| 2026-05-06 23:58 | 39.20993 | 17.53297 | 29436 ft | 369 kts | 251° |
| 2026-05-06 23:59 | 39.20116 | 17.50192 | 28934 ft | 366 kts | 251° |
| 2026-05-06 23:59 | 39.19250 | 17.47114 | 28432 ft | 363 kts | 251° |
| 2026-05-06 23:59 | 39.18404 | 17.44093 | 27937 ft | 360 kts | 251° |
| 2026-05-06 23:59 | 39.17557 | 17.41052 | 27434 ft | 357 kts | 251° |
| 2026-05-07 00:00 | 39.16722 | 17.38040 | 26931 ft | 354 kts | 251° |
| 2026-05-07 00:00 | 39.15894 | 17.35101 | 26436 ft | 351 kts | 251° |
| 2026-05-07 00:00 | 39.15050 | 17.32149 | 25933 ft | 348 kts | 251° |
| 2026-05-07 00:00 | 39.14493 | 17.30208 | 25600 ft | 346 kts | 251° |
| 2026-05-07 00:01 | 39.13387 | 17.26357 | 24933 ft | 342 kts | 250° |
| 2026-05-07 00:01 | 39.12565 | 17.23482 | 24430 ft | 339 kts | 250° |
| 2026-05-07 00:01 | 39.11764 | 17.20676 | 23934 ft | 336 kts | 250° |
| 2026-05-07 00:01 | 39.10962 | 17.17856 | 23432 ft | 333 kts | 250° |
| 2026-05-07 00:02 | 39.10167 | 17.15058 | 22929 ft | 330 kts | 250° |
| 2026-05-07 00:02 | 39.09391 | 17.12326 | 22434 ft | 327 kts | 251° |
| 2026-05-07 00:02 | 39.08610 | 17.09574 | 21931 ft | 324 kts | 251° |
| 2026-05-07 00:02 | 39.07834 | 17.06843 | 21428 ft | 321 kts | 251° |
| 2026-05-07 00:03 | 39.07076 | 17.04176 | 20932 ft | 319 kts | 251° |
| 2026-05-07 00:03 | 39.06315 | 17.01500 | 20429 ft | 316 kts | 250° |
| 2026-05-07 00:03 | 39.05570 | 16.98872 | 19932 ft | 314 kts | 250° |
| 2026-05-07 00:03 | 39.04822 | 16.96233 | 19428 ft | 311 kts | 250° |
| 2026-05-07 00:04 | 39.04089 | 16.93646 | 18931 ft | 308 kts | 250° |
| 2026-05-07 00:04 | 39.03358 | 16.91059 | 18429 ft | 306 kts | 250° |
| 2026-05-07 00:04 | 39.02639 | 16.88518 | 17932 ft | 303 kts | 250° |
| 2026-05-07 00:04 | 39.01916 | 16.85958 | 17428 ft | 301 kts | 250° |
| 2026-05-07 00:05 | 39.01210 | 16.83474 | 16935 ft | 298 kts | 249° |
| 2026-05-07 00:05 | 39.00496 | 16.80975 | 16430 ft | 294 kts | 249° |
| 2026-05-07 00:05 | 38.99800 | 16.78544 | 15933 ft | 290 kts | 249° |
| 2026-05-07 00:05 | 38.99093 | 16.76114 | 15428 ft | 287 kts | 249° |
| 2026-05-07 00:06 | 38.98395 | 16.73717 | 14969 ft | 283 kts | 248° |
| 2026-05-07 00:06 | 38.97718 | 16.71378 | 14549 ft | 281 kts | 248° |
| 2026-05-07 00:06 | 38.97035 | 16.69018 | 14118 ft | 279 kts | 248° |
| 2026-05-07 00:06 | 38.96358 | 16.66718 | 13696 ft | 277 kts | 248° |
| 2026-05-07 00:07 | 38.95674 | 16.64397 | 13269 ft | 276 kts | 248° |
| 2026-05-07 00:07 | 38.95005 | 16.62119 | 12847 ft | 274 kts | 247° |
| 2026-05-07 00:07 | 38.94337 | 16.59820 | 12418 ft | 272 kts | 247° |
| 2026-05-07 00:07 | 38.93676 | 16.57545 | 11994 ft | 271 kts | 247° |
| 2026-05-07 00:08 | 38.93011 | 16.55296 | 11568 ft | 270 kts | 246° |
| 2026-05-07 00:08 | 38.92346 | 16.53064 | 11144 ft | 269 kts | 246° |
| 2026-05-07 00:08 | 38.91675 | 16.50812 | 10718 ft | 270 kts | 246° |
| 2026-05-07 00:08 | 38.91002 | 16.48544 | 10288 ft | 271 kts | 246° |
| 2026-05-07 00:09 | 38.90329 | 16.46270 | 9860 ft | 272 kts | 246° |
| 2026-05-07 00:09 | 38.89664 | 16.44011 | 9439 ft | 274 kts | 246° |
| 2026-05-07 00:09 | 38.88993 | 16.41706 | 9012 ft | 276 kts | 246° |
| 2026-05-07 00:09 | 38.88337 | 16.39408 | 8590 ft | 277 kts | 247° |
| 2026-05-07 00:10 | 38.87677 | 16.37064 | 8164 ft | 278 kts | 248° |
| 2026-05-07 00:10 | 38.87017 | 16.34719 | 7737 ft | 278 kts | 248° |
| 2026-05-07 00:10 | 38.86367 | 16.32415 | 7315 ft | 277 kts | 248° |
| 2026-05-07 00:10 | 38.85709 | 16.30091 | 6918 ft | 276 kts | 248° |
| 2026-05-07 00:11 | 38.85060 | 16.27808 | 6749 ft | 271 kts | 248° |
| 2026-05-07 00:11 | 38.84410 | 16.25533 | 6576 ft | 271 kts | 248° |
| 2026-05-07 00:11 | 38.83770 | 16.23240 | 6400 ft | 272 kts | 248° |
| 2026-05-07 00:11 | 38.83147 | 16.20973 | 6229 ft | 272 kts | 249° |
| 2026-05-07 00:12 | 38.82518 | 16.18679 | 6072 ft | 269 kts | 248° |
| 2026-05-07 00:12 | 38.81917 | 16.16475 | 5905 ft | 253 kts | 249° |
| 2026-05-07 00:12 | 38.81629 | 16.14331 | 5737 ft | 242 kts | 266° |
| 2026-05-07 00:12 | 38.81757 | 16.12247 | 5609 ft | 225 kts | 275° |
| 2026-05-07 00:13 | 38.81998 | 16.10337 | 5400 ft | 214 kts | 277° |
| 2026-05-07 00:13 | 38.82263 | 16.08495 | 5190 ft | 207 kts | 278° |
| 2026-05-07 00:13 | 38.82539 | 16.06697 | 4984 ft | 203 kts | 279° |
| 2026-05-07 00:13 | 38.82820 | 16.04927 | 4779 ft | 200 kts | 279° |
| 2026-05-07 00:14 | 38.83098 | 16.03179 | 4578 ft | 199 kts | 279° |
| 2026-05-07 00:14 | 38.83369 | 16.01459 | 4379 ft | 198 kts | 279° |
| 2026-05-07 00:14 | 38.83548 | 16.00310 | 4245 ft | 197 kts | 279° |
| 2026-05-07 00:14 | 38.83879 | 15.98599 | 4028 ft | 198 kts | 291° |
| 2026-05-07 00:15 | 38.85168 | 15.97026 | 3769 ft | 197 kts | 337° |
| 2026-05-07 00:15 | 38.86064 | 15.96812 | 3675 ft | 198 kts | 356° |
| 2026-05-07 00:15 | 38.87889 | 15.97012 | 3476 ft | 198 kts | 10° |
| 2026-05-07 00:15 | 38.88790 | 15.97231 | 3360 ft | 197 kts | 12° |
| 2026-05-07 00:16 | 38.90130 | 15.97587 | 3183 ft | 195 kts | 12° |
| 2026-05-07 00:16 | 38.91337 | 15.98315 | 2994 ft | 192 kts | 40° |
| 2026-05-07 00:16 | 38.92109 | 15.99696 | 2909 ft | 190 kts | 62° |
| 2026-05-07 00:16 | 38.92575 | 16.01287 | 2792 ft | 191 kts | 75° |
| 2026-05-07 00:17 | 38.92766 | 16.02949 | 2670 ft | 189 kts | 86° |
| 2026-05-07 00:17 | 38.92758 | 16.04637 | 2523 ft | 189 kts | 93° |
| 2026-05-07 00:17 | 38.92632 | 16.06305 | 2351 ft | 188 kts | 97° |
| 2026-05-07 00:17 | 38.92445 | 16.07967 | 2170 ft | 186 kts | 99° |
| 2026-05-07 00:18 | 38.92246 | 16.09587 | 2010 ft | 184 kts | 99° |
| 2026-05-07 00:18 | 38.92051 | 16.11215 | 1834 ft | 182 kts | 98° |
| 2026-05-07 00:18 | 38.91868 | 16.12776 | 1654 ft | 170 kts | 98° |
| 2026-05-07 00:18 | 38.91700 | 16.14209 | 1460 ft | 155 kts | 98° |
| 2026-05-07 00:19 | 38.91545 | 16.15524 | 1279 ft | 141 kts | 96° |
| 2026-05-07 00:19 | 38.91404 | 16.16747 | 1059 ft | 139 kts | 96° |
| 2026-05-07 00:19 | 38.91264 | 16.17976 | 873 ft | 137 kts | 96° |
| 2026-05-07 00:19 | 38.91127 | 16.19171 | 688 ft | 135 kts | 97° |
| 2026-05-07 00:20 | 38.90990 | 16.20363 | 484 ft | 133 kts | 97° |
| 2026-05-07 00:20 | 38.90855 | 16.21535 | 300 ft | 131 kts | 98° |
| 2026-05-07 00:20 | 38.90720 | 16.22692 | 134 ft | 130 kts | 98° |
| 2026-05-07 00:20 | 38.90591 | 16.23793 | 48 ft | 115 kts | 98° |
| 2026-05-07 00:21 | 38.90503 | 16.24551 | 48 ft | 56 kts | 98° |
| 2026-05-07 00:21 | 38.90497 | 16.24817 | 48 ft | 18 kts | 69° |
| 2026-05-07 00:21 | 38.90531 | 16.24928 | 48 ft | 10 kts | 65° |
| 2026-05-07 00:21 | 38.90559 | 16.24994 | 48 ft | 8 kts | 53° |
| 2026-05-07 00:22 | 38.90614 | 16.25034 | 48 ft | 10 kts | 1° |
| 2026-05-07 00:22 | 38.90676 | 16.24978 | 48 ft | 13 kts | 301° |
| 2026-05-07 00:22 | 38.90748 | 16.24902 | 48 ft | 13 kts | 317° |
| 2026-05-07 00:22 | 38.90766 | 16.24807 | 48 ft | 10 kts | 278° |
| 2026-05-07 00:23 | 38.90777 | 16.24707 | 48 ft | 7 kts | 278° |
| 2026-05-07 00:23 | 38.90803 | 16.24663 | 48 ft | 6 kts | 358° |
| 2026-05-07 00:23 | 38.90833 | 16.24670 | 48 ft | 3 kts | 20° |
| 2026-05-07 00:23 | 38.90850 | 16.24687 | 48 ft | 3 kts | 45° |
| 2026-05-07 00:24 | 38.90851 | 16.24689 | 48 ft | 0 kts | 45° |